Time;durP1;ratioP1;P1;durP2;ratioP2;P2;SDS_P1;SDS_P2;PMS_P1;PMS_P2;Temp;Humidity;BMP_temperature;BMP_pressure;BME280_temperature;BME280_humidity;BME280_pressure;Samples;Min_cycle;Max_cycle;Signal;HPM_P1;HPM_P2
2022/03/12 00:00:31;;;;;;;;;;;;;;;-1.64;43.86;100691.47;5027319;28;20055;-62
2022/03/12 00:03:16;;;;;;;;;;;;;;;-1.87;45.72;100685.28;4998450;28;20321;-63
2022/03/12 00:06:02;;;;;;;;;;;;;;;-1.77;46.05;100689.16;4984601;28;20027;-64
2022/03/12 00:08:47;;;;;;;;;;;;;;;-1.35;45.97;100676.25;5028580;28;19927;-64
2022/03/12 00:11:36;;;;;;;;;;;;;;;-1.19;44.53;100683.00;5010604;28;19928;-65
2022/03/12 00:14:22;;;;;;;;;;;;;;;-1.35;44.35;100678.84;5012653;28;20431;-62
2022/03/12 00:17:07;;;;;;;;;;;;;;;-1.48;43.54;100688.69;5028643;28;19978;-64
2022/03/12 00:19:52;;;;;;;;;;;;;;;-1.45;42.96;100687.13;5013400;28;19932;-62
2022/03/12 00:22:37;;;;;;;;;;;;;;;-1.44;42.74;100695.78;5013348;28;19928;-63
2022/03/12 00:25:27;;;;;;;;;;;;;;;-1.21;43.56;100695.94;5012808;28;19928;-66
2022/03/12 00:28:12;;;;;;;;;;;;;;;-1.31;42.90;100690.25;5013904;28;19970;-63
2022/03/12 00:30:57;;;;;;;;;;;;;;;-1.56;43.61;100701.38;5026277;28;20370;-63
2022/03/12 00:33:41;;;;;;;;;;;;;;;-1.62;44.55;100698.50;5038532;28;20400;-63
2022/03/12 00:36:26;;;;;;;;;;;;;;;-1.60;47.16;100694.28;5022633;28;20287;-63
2022/03/12 00:39:11;;;;;;;;;;;;;;;-1.71;49.84;100697.22;5036686;28;19975;-64
2022/03/12 00:41:58;;;;;;;;;;;;;;;-1.51;49.59;100684.25;5028512;28;19928;-64
2022/03/12 00:44:42;;;;;;;;;;;;;;;-1.47;50.57;100685.25;5012305;28;19928;-62
2022/03/12 00:47:28;;;;;;;;;;;;;;;-1.46;51.68;100682.72;5030972;28;19970;-62
2022/03/12 00:50:13;;;;;;;;;;;;;;;-1.32;51.30;100676.38;4984600;28;19986;-63
2022/03/12 00:52:58;;;;;;;;;;;;;;;-1.20;53.82;100670.78;5014644;28;19927;-63
2022/03/12 00:55:43;;;;;;;;;;;;;;;-1.38;56.68;100667.44;4989270;28;19974;-64
2022/03/12 00:58:28;;;;;;;;;;;;;;;-1.36;56.92;100660.59;5017714;28;19959;-62
2022/03/12 01:01:13;;;;;;;;;;;;;;;-1.12;56.66;100666.78;5016360;28;20419;-64
2022/03/12 01:03:58;;;;;;;;;;;;;;;-1.15;50.89;100666.69;5014958;28;19928;-64
2022/03/12 01:06:43;;;;;;;;;;;;;;;-1.04;51.73;100662.78;5033810;28;19932;-64
2022/03/12 01:09:28;;;;;;;;;;;;;;;-1.51;50.83;100666.03;5015534;28;20447;-63
2022/03/12 01:12:12;;;;;;;;;;;;;;;-1.78;51.51;100656.22;5004435;28;19935;-63
2022/03/12 01:14:57;;;;;;;;;;;;;;;-1.74;52.38;100652.91;5016702;28;20241;-63
2022/03/12 01:17:42;;;;;;;;;;;;;;;-1.78;53.01;100646.69;5016606;28;19932;-62
2022/03/12 01:20:26;;;;;;;;;;;;;;;-1.87;53.13;100641.09;5031583;28;19932;-63
2022/03/12 01:23:14;;;;;;;;;;;;;;;-1.87;54.44;100641.09;5030135;28;19982;-66
2022/03/12 01:25:58;;;;;;;;;;;;;;;-1.90;55.03;100643.56;5032808;28;19928;-64
2022/03/12 01:28:43;;;;;;;;;;;;;;;-1.73;55.15;100641.69;4988102;28;19989;-63
2022/03/12 01:31:27;;;;;;;;;;;;;;;-1.56;53.77;100633.78;5033352;28;20390;-63
2022/03/12 01:34:12;;;;;;;;;;;;;;;-1.47;53.07;100625.44;5016305;28;19970;-64
2022/03/12 01:36:57;;;;;;;;;;;;;;;-1.38;53.42;100624.09;5031298;28;20254;-62
2022/03/12 01:39:41;;;;;;;;;;;;;;;-1.28;52.14;100626.25;5018451;28;19928;-62
2022/03/12 01:42:27;;;;;;;;;;;;;;;-0.94;51.45;100624.16;5000326;28;20385;-64
2022/03/12 01:45:13;;;;;;;;;;;;;;;-1.02;49.75;100630.78;5031870;28;19935;-63
2022/03/12 01:48:03;;;;;;;;;;;;;;;-1.17;49.73;100634.50;5013027;28;19928;-64
2022/03/12 01:50:47;;;;;;;;;;;;;;;-1.19;50.32;100641.38;5014876;28;20219;-63
2022/03/12 01:53:31;;;;;;;;;;;;;;;-1.17;50.39;100634.50;5029620;28;19928;-62
2022/03/12 01:56:16;;;;;;;;;;;;;;;-1.19;50.94;100637.03;5000548;28;19927;-65
2022/03/12 01:59:01;;;;;;;;;;;;;;;-1.20;51.32;100630.06;5030844;28;19975;-64
2022/03/12 02:01:52;;;;;;;;;;;;;;;-1.24;51.54;100627.25;4999123;28;19931;-63
2022/03/12 02:04:36;;;;;;;;;;;;;;;-1.09;52.45;100625.28;5016534;28;20027;-64
2022/03/12 02:07:21;;;;;;;;;;;;;;;-1.29;52.32;100632.31;5029610;28;20292;-62
2022/03/12 02:10:08;;;;;;;;;;;;;;;-1.48;55.22;100640.19;5013392;28;19928;-65
2022/03/12 02:12:53;;;;;;;;;;;;;;;-1.45;58.40;100640.31;4986237;28;20035;-64
2022/03/12 02:15:38;;;;;;;;;;;;;;;-1.47;59.59;100631.53;5011699;28;19966;-64
2022/03/12 02:18:22;;;;;;;;;;;;;;;-1.49;60.85;100640.09;4986125;28;20305;-63
2022/03/12 02:21:07;;;;;;;;;;;;;;;-1.31;59.70;100628.75;5027277;28;19927;-61
2022/03/12 02:23:51;;;;;;;;;;;;;;;-1.10;58.16;100626.97;5031891;28;19928;-63
2022/03/12 02:26:38;;;;;;;;;;;;;;;-0.95;59.99;100618.91;5031759;28;19928;-62
2022/03/12 02:29:24;;;;;;;;;;;;;;;-1.04;60.33;100608.13;5015390;28;19935;-63
2022/03/12 02:32:10;;;;;;;;;;;;;;;-1.06;60.73;100597.66;4987970;28;19974;-63
2022/03/12 02:34:56;;;;;;;;;;;;;;;-0.99;61.51;100602.28;5028646;28;19928;-62
2022/03/12 02:37:48;;;;;;;;;;;;;;;-0.98;62.20;100601.44;5002931;28;19928;-63
2022/03/12 02:40:33;;;;;;;;;;;;;;;-1.02;62.61;100604.75;5032853;28;20063;-61
2022/03/12 02:43:21;;;;;;;;;;;;;;;-1.04;61.89;100602.91;5030362;28;19967;-66
2022/03/12 02:46:06;;;;;;;;;;;;;;;-1.01;61.71;100605.66;4987812;28;20020;-63
2022/03/12 02:48:51;;;;;;;;;;;;;;;-1.04;59.86;100597.72;4985347;28;20392;-63
2022/03/12 02:51:36;;;;;;;;;;;;;;;-0.99;58.39;100604.00;5031808;28;20019;-64
2022/03/12 02:54:20;;;;;;;;;;;;;;;-0.94;57.26;100592.06;5003761;28;19987;-66
2022/03/12 02:57:05;;;;;;;;;;;;;;;-1.05;58.14;100595.94;5003432;28;19928;-63
2022/03/12 02:59:50;;;;;;;;;;;;;;;-1.12;59.21;100597.44;5002278;28;20310;-63
2022/03/12 03:02:41;;;;;;;;;;;;;;;-1.16;58.38;100592.94;4986878;28;19927;-65
2022/03/12 03:08:20;;;;;;;;;;;;;;;-1.22;61.40;100589.22;5018424;28;20338;-64
2022/03/12 03:11:10;;;;;;;;;;;;;;;-1.38;64.05;100582.50;5003744;28;20064;-64
2022/03/12 03:13:54;;;;;;;;;;;;;;;-1.43;66.53;100586.63;5006920;28;20051;-64
2022/03/12 03:16:39;;;;;;;;;;;;;;;-1.37;66.40;100578.19;5016182;28;19983;-63
2022/03/12 03:19:26;;;;;;;;;;;;;;;-1.45;66.67;100579.59;5019174;28;19947;-64
2022/03/12 03:22:11;;;;;;;;;;;;;;;-1.52;68.16;100573.28;5006648;28;20470;-63
2022/03/12 03:24:56;;;;;;;;;;;;;;;-1.37;68.24;100578.19;5019532;28;19948;-64
2022/03/12 03:27:41;;;;;;;;;;;;;;;-1.37;69.35;100573.88;5001317;28;19928;-63
2022/03/12 03:30:25;;;;;;;;;;;;;;;-1.36;68.37;100565.25;5015823;28;20083;-66
2022/03/12 03:33:12;;;;;;;;;;;;;;;-1.16;71.06;100564.31;4990718;28;19948;-63
2022/03/12 03:35:56;;;;;;;;;;;;;;;-0.89;72.78;100572.28;5018714;28;20008;-62
2022/03/12 03:38:41;;;;;;;;;;;;;;;-0.66;73.69;100561.88;5005815;28;19979;-64
2022/03/12 03:41:25;;;;;;;;;;;;;;;-0.76;73.52;100566.69;5004003;28;20023;-63
2022/03/12 03:44:10;;;;;;;;;;;;;;;-0.53;72.00;100571.94;5018653;28;19952;-64
2022/03/12 03:46:55;;;;;;;;;;;;;;;-0.22;70.05;100564.41;4974221;28;20001;-63
2022/03/12 03:49:40;;;;;;;;;;;;;;;0.04;67.69;100570.50;4995569;28;19928;-64
2022/03/12 03:52:26;;;;;;;;;;;;;;;0.16;66.07;100563.09;5010600;28;19928;-63
2022/03/12 03:55:11;;;;;;;;;;;;;;;0.26;66.57;100572.09;5002533;28;19933;-63
2022/03/12 03:57:56;;;;;;;;;;;;;;;0.13;69.09;100568.22;5022684;28;19943;-61
2022/03/12 04:00:51;;;;;;;;;;;;;;;0.05;69.12;100578.34;5020649;28;20015;-63
2022/03/12 04:03:36;;;;;;;;;;;;;;;0.12;69.37;100587.31;4986708;28;19929;-63
2022/03/12 04:06:22;;;;;;;;;;;;;;;0.32;69.46;100590.56;4984640;28;19984;-63
2022/03/12 04:09:07;;;;;;;;;;;;;;;0.37;70.01;100591.59;4967464;28;20436;-64
2022/03/12 04:11:51;;;;;;;;;;;;;;;0.48;68.65;100595.44;4985599;28;19932;-64
2022/03/12 04:14:36;;;;;;;;;;;;;;;0.52;67.37;100594.72;4984196;28;19968;-63
2022/03/12 04:17:21;;;;;;;;;;;;;;;0.47;67.84;100607.59;4982686;28;19983;-67
2022/03/12 04:20:05;;;;;;;;;;;;;;;0.47;67.74;100612.81;4984771;28;19929;-63
2022/03/12 04:22:51;;;;;;;;;;;;;;;0.61;67.67;100608.94;5005953;28;19928;-64
2022/03/12 04:25:37;;;;;;;;;;;;;;;0.77;67.67;100607.72;4985703;28;19987;-63
2022/03/12 04:28:22;;;;;;;;;;;;;;;0.90;67.01;100615.13;4996962;28;20439;-65
2022/03/12 04:31:07;;;;;;;;;;;;;;;0.98;66.62;100614.50;4997710;28;20246;-63
2022/03/12 04:33:52;;;;;;;;;;;;;;;1.09;65.14;100613.13;4970576;28;19980;-64
2022/03/12 04:36:36;;;;;;;;;;;;;;;1.14;64.79;100629.81;4996686;28;19971;-66
2022/03/12 04:39:20;;;;;;;;;;;;;;;1.08;66.08;100627.03;4997545;28;19943;-64
2022/03/12 04:42:06;;;;;;;;;;;;;;;1.06;67.24;100619.97;4982372;28;19955;-63
2022/03/12 04:44:51;;;;;;;;;;;;;;;1.10;65.46;100629.69;4998998;28;19928;-64
2022/03/12 04:47:44;;;;;;;;;;;;;;;1.18;66.24;100616.00;4997185;28;19936;-63
2022/03/12 04:50:29;;;;;;;;;;;;;;;1.05;67.05;100618.19;5013243;28;19971;-65
2022/03/12 04:53:13;;;;;;;;;;;;;;;1.04;67.33;100619.03;5012080;28;20388;-64
2022/03/12 04:55:58;;;;;;;;;;;;;;;0.96;66.26;100623.13;4994881;28;19975;-66
2022/03/12 04:58:44;;;;;;;;;;;;;;;1.01;67.63;100622.44;4997144;28;19947;-64
2022/03/12 05:01:30;;;;;;;;;;;;;;;1.07;68.04;100617.38;4995522;28;19928;-64
2022/03/12 05:04:15;;;;;;;;;;;;;;;1.26;67.36;100611.88;4985042;28;19928;-65
2022/03/12 05:07:03;;;;;;;;;;;;;;;1.37;65.66;100612.22;4999728;28;19929;-64
2022/03/12 05:09:47;;;;;;;;;;;;;;;1.38;65.92;100606.16;4996481;28;19959;-67
2022/03/12 05:12:31;;;;;;;;;;;;;;;1.50;65.65;100606.53;4997495;28;20289;-63
2022/03/12 05:15:17;;;;;;;;;;;;;;;1.44;65.25;100599.38;5010302;28;19971;-65
2022/03/12 05:18:03;;;;;;;;;;;;;;;1.52;65.18;100589.16;4998548;28;20040;-64
2022/03/12 05:20:48;;;;;;;;;;;;;;;1.47;62.88;100594.25;5014018;28;19983;-65
2022/03/12 05:23:32;;;;;;;;;;;;;;;1.43;63.81;100597.63;4996763;28;20305;-63
2022/03/12 05:26:17;;;;;;;;;;;;;;;1.61;63.01;100621.66;4998553;28;19932;-64
2022/03/12 05:29:01;;;;;;;;;;;;;;;1.63;62.56;100629.56;4995733;28;19928;-69
2022/03/12 05:31:45;;;;;;;;;;;;;;;1.82;62.86;100617.03;5013549;28;19948;-64
2022/03/12 05:34:30;;;;;;;;;;;;;;;1.81;61.81;100630.06;5009780;28;20238;-65
2022/03/12 05:37:15;;;;;;;;;;;;;;;1.93;62.49;100625.22;4996544;28;19929;-64
2022/03/12 05:39:59;;;;;;;;;;;;;;;1.89;62.24;100623.31;5012200;28;20448;-66
2022/03/12 05:42:45;;;;;;;;;;;;;;;1.79;60.60;100631.75;5012136;28;20125;-63
2022/03/12 05:45:29;;;;;;;;;;;;;;;1.69;60.07;100632.31;5011845;28;20020;-64
2022/03/12 05:48:15;;;;;;;;;;;;;;;1.84;61.12;100624.91;5012989;28;19928;-67
2022/03/12 05:51:00;;;;;;;;;;;;;;;1.76;60.27;100618.59;4996800;28;20013;-64
2022/03/12 05:53:49;;;;;;;;;;;;;;;1.73;61.44;100622.00;4981216;28;19928;-65
2022/03/12 05:56:33;;;;;;;;;;;;;;;1.80;63.29;100629.19;4997606;28;20032;-64
2022/03/12 05:59:18;;;;;;;;;;;;;;;2.04;63.66;100616.81;4996240;28;20632;-65
2022/03/12 06:02:03;;;;;;;;;;;;;;;2.18;61.55;100618.03;4997419;28;19932;-65
2022/03/12 06:04:47;;;;;;;;;;;;;;;2.14;60.60;100605.72;4982327;28;19944;-63
2022/03/12 06:07:32;;;;;;;;;;;;;;;2.24;59.91;100594.66;4995208;28;19932;-67
2022/03/12 06:10:18;;;;;;;;;;;;;;;2.31;59.22;100587.84;4997296;28;20004;-63
2022/03/12 06:13:05;;;;;;;;;;;;;;;2.22;58.49;100596.34;4994807;28;20007;-65
2022/03/12 06:15:58;;;;;;;;;;;;;;;2.30;59.17;100605.28;4982446;28;19944;-63
2022/03/12 06:18:43;;;;;;;;;;;;;;;2.36;59.40;100596.69;4998306;28;19932;-65
2022/03/12 06:21:28;;;;;;;;;;;;;;;2.46;59.39;100593.50;5010231;28;19933;-67
2022/03/12 06:24:13;;;;;;;;;;;;;;;2.34;58.87;100614.97;5012676;28;19928;-64
2022/03/12 06:26:57;;;;;;;;;;;;;;;2.36;58.84;100608.06;5008887;28;20345;-64
2022/03/12 06:29:42;;;;;;;;;;;;;;;2.41;59.11;100618.66;4982996;28;19932;-64
2022/03/12 06:32:30;;;;;;;;;;;;;;;2.17;57.30;100623.25;4995495;28;19929;-64
2022/03/12 06:35:16;;;;;;;;;;;;;;;2.11;58.28;100623.97;4982306;28;19944;-64
2022/03/12 06:38:00;;;;;;;;;;;;;;;2.28;60.78;100624.41;4998553;28;19928;-65
2022/03/12 06:40:45;;;;;;;;;;;;;;;2.16;61.22;100622.34;4974197;28;20361;-64
2022/03/12 06:43:31;;;;;;;;;;;;;;;2.03;62.51;100635.06;4989702;28;19944;-64
2022/03/12 06:46:16;;;;;;;;;;;;;;;2.17;62.11;100620.63;4978341;28;20305;-65
2022/03/12 06:49:01;;;;;;;;;;;;;;;2.09;62.41;100624.78;4991291;28;20365;-65
2022/03/12 06:51:45;;;;;;;;;;;;;;;2.16;62.02;100622.34;4994538;28;19929;-63
2022/03/12 06:54:29;;;;;;;;;;;;;;;2.22;64.75;100626.88;4990026;28;19946;-66
2022/03/12 06:57:14;;;;;;;;;;;;;;;2.27;63.38;100618.31;4975797;28;20404;-64
2022/03/12 06:59:58;;;;;;;;;;;;;;;2.44;63.74;100619.63;4987673;28;19988;-66
2022/03/12 07:02:43;;;;;;;;;;;;;;;2.62;62.97;100630.56;4992463;28;19936;-65
2022/03/12 07:05:28;;;;;;;;;;;;;;;2.81;62.24;100629.28;4987695;28;19988;-66
2022/03/12 07:08:12;;;;;;;;;;;;;;;2.85;60.47;100633.75;4961937;28;19932;-65
2022/03/12 07:10:57;;;;;;;;;;;;;;;2.87;61.70;100634.66;4975577;28;20740;-68
2022/03/12 07:13:42;;;;;;;;;;;;;;;2.98;60.03;100635.81;4975491;28;19961;-64
2022/03/12 07:16:26;;;;;;;;;;;;;;;3.09;60.89;100637.81;4988948;28;19933;-65
2022/03/12 07:19:11;;;;;;;;;;;;;;;3.19;60.57;100638.91;4986972;28;20333;-69
2022/03/12 07:21:56;;;;;;;;;;;;;;;3.20;60.17;100636.34;4975375;28;19960;-65
2022/03/12 07:24:40;;;;;;;;;;;;;;;3.35;59.31;100626.22;4986840;28;19930;-63
2022/03/12 07:27:25;;;;;;;;;;;;;;;3.48;59.00;100630.84;4991225;28;20008;-65
2022/03/12 07:30:12;;;;;;;;;;;;;;;3.32;59.09;100597.31;4989701;28;19976;-65
2022/03/12 07:32:56;;;;;;;;;;;;;;;3.49;58.82;100630.00;4974912;28;19960;-64
2022/03/12 07:35:42;;;;;;;;;;;;;;;3.62;59.81;100626.81;4975342;28;19967;-65
2022/03/12 07:38:27;;;;;;;;;;;;;;;3.59;61.61;100631.97;4986666;28;19977;-66
2022/03/12 07:41:12;;;;;;;;;;;;;;;3.71;63.00;100636.59;5007898;28;19928;-64
2022/03/12 07:43:57;;;;;;;;;;;;;;;3.81;63.10;100634.19;4978610;28;19928;-63
2022/03/12 07:46:42;;;;;;;;;;;;;;;3.86;62.83;100634.28;5009520;28;20305;-63
2022/03/12 07:49:28;;;;;;;;;;;;;;;3.97;64.27;100638.03;5012566;28;19927;-64
2022/03/12 07:52:12;;;;;;;;;;;;;;;4.15;63.71;100636.63;5009700;28;19959;-65
2022/03/12 07:54:57;;;;;;;;;;;;;;;4.20;64.37;100639.34;4980328;28;19936;-67
2022/03/12 07:57:41;;;;;;;;;;;;;;;4.13;63.84;100643.63;4993019;28;19972;-69
2022/03/12 08:00:28;;;;;;;;;;;;;;;4.28;63.51;100643.00;4996583;28;19987;-65
2022/03/12 08:03:13;;;;;;;;;;;;;;;4.49;63.45;100646.03;4992397;28;20474;-65
2022/03/12 08:05:58;;;;;;;;;;;;;;;4.50;61.82;100653.03;5008449;28;19928;-64
2022/03/12 08:08:42;;;;;;;;;;;;;;;4.58;61.28;100647.09;5010897;28;20621;-65
2022/03/12 08:11:29;;;;;;;;;;;;;;;4.55;63.20;100654.91;4993316;28;20350;-65
2022/03/12 08:14:17;;;;;;;;;;;;;;;4.67;63.26;100651.63;4980184;28;20052;-67
2022/03/12 08:17:01;;;;;;;;;;;;;;;4.50;62.38;100655.66;4992058;28;20324;-65
2022/03/12 08:19:49;;;;;;;;;;;;;;;4.35;63.76;100645.78;4993759;28;19928;-65
2022/03/12 08:22:41;;;;;;;;;;;;;;;4.36;65.32;100654.53;4993069;28;20007;-65
2022/03/12 08:25:26;;;;;;;;;;;;;;;4.29;65.33;100648.28;4993228;28;20352;-67
2022/03/12 08:28:11;;;;;;;;;;;;;;;4.32;66.81;100653.56;4993003;28;19944;-64
2022/03/12 08:30:55;;;;;;;;;;;;;;;4.47;65.92;100646.00;4971557;28;20358;-63
2022/03/12 08:33:39;;;;;;;;;;;;;;;4.65;66.14;100662.09;4973929;28;19979;-64
2022/03/12 08:36:24;;;;;;;;;;;;;;;4.86;64.94;100651.94;4987779;28;20332;-64
2022/03/12 08:39:09;;;;;;;;;;;;;;;4.98;64.16;100646.88;4987494;28;19972;-63
2022/03/12 08:41:54;;;;;;;;;;;;;;;4.94;62.25;100647.69;4975967;28;19929;-65
2022/03/12 08:44:39;;;;;;;;;;;;;;;4.99;62.59;100647.78;4975033;28;19928;-67
2022/03/12 08:47:24;;;;;;;;;;;;;;;5.22;62.03;100650.78;4973181;28;20349;-64
2022/03/12 08:50:09;;;;;;;;;;;;;;;5.38;61.42;100648.38;4971447;28;19971;-64
2022/03/12 08:52:53;;;;;;;;;;;;;;;5.46;59.95;100648.50;4974669;28;19968;-65
2022/03/12 08:55:38;;;;;;;;;;;;;;;5.48;59.97;100650.28;4971884;28;19972;-63
2022/03/12 08:58:23;;;;;;;;;;;;;;;5.50;59.62;100645.91;5002081;28;19971;-63
2022/03/12 09:01:08;;;;;;;;;;;;;;;5.47;60.42;100648.53;5016785;28;20023;-65
2022/03/12 09:03:54;;;;;;;;;;;;;;;5.42;60.64;100638.81;5002762;28;19963;-66
2022/03/12 09:06:38;;;;;;;;;;;;;;;5.46;59.84;100638.84;5014258;28;20016;-65
2022/03/12 09:09:22;;;;;;;;;;;;;;;5.38;61.00;100653.63;4998190;28;19927;-64
2022/03/12 09:12:08;;;;;;;;;;;;;;;5.42;62.25;100652.81;4999227;28;20442;-65
2022/03/12 09:14:53;;;;;;;;;;;;;;;5.41;62.19;100656.31;4998980;28;19967;-64
2022/03/12 09:17:37;;;;;;;;;;;;;;;5.41;62.91;100658.09;5002298;28;19944;-65
2022/03/12 09:20:23;;;;;;;;;;;;;;;5.55;62.27;100657.41;4999423;28;19928;-65
2022/03/12 09:23:07;;;;;;;;;;;;;;;5.39;61.93;100665.94;4983423;28;20387;-67
2022/03/12 09:25:53;;;;;;;;;;;;;;;5.21;63.51;100673.53;5006952;28;19943;-64
2022/03/12 09:28:37;;;;;;;;;;;;;;;5.13;64.42;100672.53;4976594;28;19984;-67
2022/03/12 09:31:24;;;;;;;;;;;;;;;5.15;65.17;100665.56;5023320;28;20393;-65
2022/03/12 09:34:08;;;;;;;;;;;;;;;5.25;65.06;100666.59;5010230;28;20007;-65
2022/03/12 09:36:54;;;;;;;;;;;;;;;5.25;65.48;100674.50;5023643;28;20023;-64
2022/03/12 09:39:38;;;;;;;;;;;;;;;5.24;65.21;100676.22;5009285;28;19967;-64
2022/03/12 09:42:25;;;;;;;;;;;;;;;5.31;63.58;100667.56;5003646;28;19995;-67
2022/03/12 09:45:11;;;;;;;;;;;;;;;5.31;63.27;100671.94;4990352;28;19928;-63
2022/03/12 09:47:56;;;;;;;;;;;;;;;5.27;64.86;100671.03;5016639;28;19928;-64
2022/03/12 09:50:40;;;;;;;;;;;;;;;5.11;65.31;100665.47;5005762;28;19963;-65
2022/03/12 09:53:25;;;;;;;;;;;;;;;5.19;66.70;100666.50;5006376;28;19928;-65
2022/03/12 09:56:09;;;;;;;;;;;;;;;5.22;65.12;100674.44;5016304;28;19932;-65
2022/03/12 09:58:55;;;;;;;;;;;;;;;5.29;65.10;100674.53;4991553;28;20368;-65
2022/03/12 10:01:40;;;;;;;;;;;;;;;5.32;66.20;100676.31;5018919;28;19928;-66
2022/03/12 10:04:24;;;;;;;;;;;;;;;5.41;66.25;100668.59;5001278;28;19940;-64
2022/03/12 10:07:09;;;;;;;;;;;;;;;5.24;64.79;100670.97;4985775;28;19985;-65
2022/03/12 10:09:53;;;;;;;;;;;;;;;5.30;65.79;100678.94;5020374;28;19987;-63
2022/03/12 10:12:38;;;;;;;;;;;;;;;5.22;65.65;100672.66;5001685;28;20010;-65
2022/03/12 10:15:22;;;;;;;;;;;;;;;4.91;66.40;100673.06;5004747;28;19971;-66
2022/03/12 10:18:07;;;;;;;;;;;;;;;4.99;67.40;100672.31;5004196;28;19930;-64
2022/03/12 10:20:52;;;;;;;;;;;;;;;5.07;68.28;100666.28;5017974;28;20404;-67
2022/03/12 10:23:36;;;;;;;;;;;;;;;5.12;66.43;100677.75;4992368;28;19928;-65
2022/03/12 10:26:21;;;;;;;;;;;;;;;5.25;67.54;100675.34;5002506;28;19979;-65
2022/03/12 10:29:05;;;;;;;;;;;;;;;5.34;66.23;100679.88;5025480;28;20427;-70
2022/03/12 10:31:50;;;;;;;;;;;;;;;5.27;67.37;100680.63;4997731;28;20340;-66
2022/03/12 10:34:34;;;;;;;;;;;;;;;5.13;66.83;100683.03;5017644;28;19932;-64
2022/03/12 10:37:20;;;;;;;;;;;;;;;5.26;68.07;100686.75;5002627;28;20337;-64
2022/03/12 10:40:06;;;;;;;;;;;;;;;5.49;67.97;100677.47;4987679;28;20400;-66
2022/03/12 10:42:53;;;;;;;;;;;;;;;5.21;67.92;100684.06;4998010;28;19928;-65
2022/03/12 10:45:40;;;;;;;;;;;;;;;5.31;67.24;100680.72;4993054;28;19983;-66
2022/03/12 10:48:25;;;;;;;;;;;;;;;5.33;67.87;100684.25;4996046;28;19928;-65
2022/03/12 10:51:10;;;;;;;;;;;;;;;5.41;66.66;100685.25;4981809;28;20274;-65
2022/03/12 10:54:15;;;;;;;;;;;;;;;5.49;66.83;100678.34;4968680;28;19963;-67
2022/03/12 10:57:00;;;;;;;;;;;;;;;5.51;67.05;100684.53;4982214;28;20503;-65
2022/03/12 10:59:46;;;;;;;;;;;;;;;5.25;66.82;100687.63;4984104;28;20007;-66
2022/03/12 11:02:30;;;;;;;;;;;;;;;5.10;67.95;100690.00;5011462;28;20004;-65
2022/03/12 11:05:15;;;;;;;;;;;;;;;5.12;67.74;100688.28;4995051;28;19940;-66
2022/03/12 11:08:21;;;;;;;;;;;;;;;5.08;67.61;100684.72;5014603;28;19940;-67
2022/03/12 11:11:22;;;;;;;;;;;;;;;5.10;66.92;100690.88;4989602;28;19996;-65
2022/03/12 11:14:15;;;;;;;;;;;;;;;5.24;66.78;100691.09;4963555;28;19928;-65
2022/03/12 11:17:02;;;;;;;;;;;;;;;5.42;66.50;100696.66;4998520;28;19928;-65
2022/03/12 11:19:48;;;;;;;;;;;;;;;5.48;67.03;100696.72;4984081;28;20012;-67
2022/03/12 11:22:32;;;;;;;;;;;;;;;5.57;66.95;100702.16;4984399;28;20022;-65
2022/03/12 11:25:22;;;;;;;;;;;;;;;5.44;65.93;100690.56;4992332;28;20332;-66
2022/03/12 11:28:20;;;;;;;;;;;;;;;5.30;65.90;100699.09;4981862;28;19968;-66
2022/03/12 11:31:07;;;;;;;;;;;;;;;5.23;67.12;100699.84;4999627;28;20020;-66
2022/03/12 11:33:55;;;;;;;;;;;;;;;5.33;67.75;100701.78;4969143;28;20028;-65
2022/03/12 11:36:42;;;;;;;;;;;;;;;5.42;66.98;100700.16;4998674;28;20354;-65
2022/03/12 11:39:28;;;;;;;;;;;;;;;5.45;67.22;100700.22;4975843;28;19929;-65
2022/03/12 11:42:15;;;;;;;;;;;;;;;5.43;66.16;100708.94;4973444;28;19928;-67
2022/03/12 11:45:03;;;;;;;;;;;;;;;5.21;67.81;100701.59;4975801;28;19928;-65
2022/03/12 11:47:47;;;;;;;;;;;;;;;5.18;68.49;100701.53;4981301;28;19929;-67
2022/03/12 11:50:35;;;;;;;;;;;;;;;5.14;67.25;100710.22;5001863;28;19963;-67
2022/03/12 11:53:20;;;;;;;;;;;;;;;5.17;67.90;100700.63;4976118;28;19939;-67
2022/03/12 11:56:07;;;;;;;;;;;;;;;5.19;68.53;100704.19;4995603;28;19928;-67
2022/03/12 11:58:51;;;;;;;;;;;;;;;5.15;67.98;100699.75;5005885;28;19928;-65
2022/03/12 12:01:37;;;;;;;;;;;;;;;5.00;68.53;100707.38;5006826;28;20496;-67
2022/03/12 12:04:24;;;;;;;;;;;;;;;5.06;69.29;100710.06;5007340;28;19971;-71
2022/03/12 12:07:10;;;;;;;;;;;;;;;5.08;69.17;100705.75;5008736;28;19929;-66
2022/03/12 12:09:54;;;;;;;;;;;;;;;5.03;69.55;100707.44;4998115;28;19936;-66
2022/03/12 12:12:43;;;;;;;;;;;;;;;5.04;70.13;100706.56;5014247;28;19975;-66
2022/03/12 12:15:36;;;;;;;;;;;;;;;5.23;69.74;100718.25;5025660;28;19966;-66
2022/03/12 12:18:22;;;;;;;;;;;;;;;5.22;68.69;100713.88;5027650;28;20368;-67
2022/03/12 12:21:06;;;;;;;;;;;;;;;5.26;70.51;100713.06;5027182;28;19974;-67
2022/03/12 12:23:51;;;;;;;;;;;;;;;5.26;68.77;100724.44;5012202;28;19927;-68
2022/03/12 12:26:36;;;;;;;;;;;;;;;5.28;68.86;100716.56;5015065;28;20059;-67
2022/03/12 12:29:34;;;;;;;;;;;;;;;5.38;69.15;100731.66;5015708;28;19928;-69
2022/03/12 12:32:20;;;;;;;;;;;;;;;5.29;67.81;100727.13;5020776;28;19928;-69
2022/03/12 12:35:10;;;;;;;;;;;;;;;5.27;69.48;100717.44;5003459;28;20055;-67
2022/03/12 12:37:57;;;;;;;;;;;;;;;5.36;68.20;100720.22;5026271;28;19974;-68
2022/03/12 12:40:47;;;;;;;;;;;;;;;5.37;67.04;100729.91;5021902;28;20011;-68
2022/03/12 12:43:37;;;;;;;;;;;;;;;5.41;67.88;100723.81;4978532;28;19928;-67
2022/03/12 12:46:22;;;;;;;;;;;;;;;5.47;67.10;100727.44;5017649;28;19928;-68
2022/03/12 12:49:07;;;;;;;;;;;;;;;5.52;67.41;100735.38;5007675;28;19932;-68
2022/03/12 12:51:55;;;;;;;;;;;;;;;5.53;66.87;100727.50;5002492;28;20412;-67
2022/03/12 12:54:43;;;;;;;;;;;;;;;5.43;66.57;100736.13;5002375;28;20404;-68
2022/03/12 12:57:42;;;;;;;;;;;;;;;5.48;67.57;100739.72;5004253;28;19991;-68
2022/03/12 13:00:26;;;;;;;;;;;;;;;5.38;66.67;100734.28;5016424;28;19975;-69
2022/03/12 13:03:18;;;;;;;;;;;;;;;5.39;67.79;100736.94;4998550;28;19928;-69
2022/03/12 13:06:03;;;;;;;;;;;;;;;5.47;69.03;100734.44;5030527;28;19931;-69
2022/03/12 13:08:49;;;;;;;;;;;;;;;5.48;68.91;100733.56;4990329;28;19947;-69
2022/03/12 13:11:34;;;;;;;;;;;;;;;5.53;68.92;100742.44;5009414;28;19975;-69
2022/03/12 13:14:21;;;;;;;;;;;;;;;5.34;68.53;100735.09;4988058;28;19928;-68
2022/03/12 13:17:07;;;;;;;;;;;;;;;5.10;68.69;100732.06;4997502;28;19971;-68
2022/03/12 13:19:51;;;;;;;;;;;;;;;4.91;70.48;100705.44;4996404;28;20388;-67
2022/03/12 13:22:43;;;;;;;;;;;;;;;5.11;69.21;100741.72;5012806;28;19927;-67
2022/03/12 13:25:28;;;;;;;;;;;;;;;5.02;71.81;100742.44;4983414;28;20397;-67
2022/03/12 13:28:15;;;;;;;;;;;;;;;5.03;73.29;100740.69;4981001;28;19928;-67
2022/03/12 13:31:01;;;;;;;;;;;;;;;5.02;74.14;100744.19;4986032;28;19927;-67
2022/03/12 13:33:50;;;;;;;;;;;;;;;5.01;74.76;100745.91;4986797;28;19991;-64
2022/03/12 13:36:39;;;;;;;;;;;;;;;5.10;74.87;100742.59;5026000;28;19970;-70
2022/03/12 13:39:26;;;;;;;;;;;;;;;4.99;74.54;100748.53;5033188;28;19932;-65
2022/03/12 13:42:11;;;;;;;;;;;;;;;5.07;76.48;100746.03;5019150;28;19928;-67
2022/03/12 13:44:57;;;;;;;;;;;;;;;5.11;76.97;100761.00;5004553;28;20444;-67
2022/03/12 13:47:44;;;;;;;;;;;;;;;5.00;76.28;100754.66;5020219;28;19943;-66
2022/03/12 13:50:30;;;;;;;;;;;;;;;4.79;78.57;100751.66;4964196;28;19933;-69
2022/03/12 13:53:15;;;;;;;;;;;;;;;4.79;80.73;100762.16;4961792;28;20093;-66
2022/03/12 13:56:04;;;;;;;;;;;;;;;4.80;81.91;100764.78;4997431;28;19947;-67
2022/03/12 13:58:50;;;;;;;;;;;;;;;4.82;79.86;100759.56;4976264;28;19928;-67
2022/03/12 14:01:42;;;;;;;;;;;;;;;4.64;82.57;100761.88;4979113;28;19977;-68
2022/03/12 14:04:28;;;;;;;;;;;;;;;4.61;84.11;100767.06;4992508;28;19932;-68
2022/03/12 14:07:14;;;;;;;;;;;;;;;4.54;82.92;100770.41;5004416;28;19972;-67
2022/03/12 14:10:05;;;;;;;;;;;;;;;4.57;85.06;100765.22;4980264;28;19932;-66
2022/03/12 14:13:01;;;;;;;;;;;;;;;4.57;84.53;100771.38;4977652;28;19982;-69
2022/03/12 14:15:48;;;;;;;;;;;;;;;4.59;84.53;100776.66;5007084;28;19928;-66
2022/03/12 14:18:35;;;;;;;;;;;;;;;4.45;85.83;100780.75;5020726;28;20321;-67
2022/03/12 14:21:22;;;;;;;;;;;;;;;4.44;87.66;100779.84;5004650;28;19927;-66